createdAt,value
2019-03-10T00:00:29.249Z,15.63
2019-03-10T00:02:57.989Z,14.78
2019-03-10T00:05:26.416Z,15.68
2019-03-10T00:07:54.751Z,14.47
2019-03-10T00:10:23.790Z,13.15
2019-03-10T00:12:52.374Z,14.33
2019-03-10T00:15:20.862Z,12.13
2019-03-10T00:17:49.209Z,14.90
2019-03-10T00:20:17.705Z,14.40
2019-03-10T00:22:46.045Z,13.50
2019-03-10T00:25:14.832Z,14.13
2019-03-10T00:27:43.370Z,12.05
2019-03-10T00:30:12.566Z,13.03
2019-03-10T00:32:41.351Z,15.78
2019-03-10T00:35:09.994Z,15.23
2019-03-10T00:37:38.442Z,8.53
2019-03-10T00:41:13.281Z,9.53
2019-03-10T00:44:37.183Z,14.35
2019-03-10T00:48:13.300Z,12.80
2019-03-10T00:51:37.521Z,11.88
2019-03-10T00:54:06.105Z,11.30
2019-03-10T00:56:34.792Z,11.75
2019-03-10T00:59:03.770Z,9.63
2019-03-10T01:01:32.129Z,11.45
2019-03-10T01:04:01.418Z,9.68
2019-03-10T01:06:29.703Z,9.43
2019-03-10T01:08:58.203Z,10.68
2019-03-10T01:11:26.666Z,9.53
2019-03-10T01:13:55.103Z,11.57
2019-03-10T01:16:24.914Z,8.95
2019-03-10T01:18:54.166Z,4.92
2019-03-10T01:21:22.752Z,4.67
2019-03-10T01:23:51.558Z,4.62
2019-03-10T01:26:19.958Z,4.40
2019-03-10T01:28:48.688Z,3.87
2019-03-10T01:31:35.048Z,3.72
2019-03-10T01:34:43.096Z,3.52
2019-03-10T01:37:11.607Z,4.12
2019-03-10T01:39:39.879Z,6.72
2019-03-10T01:42:08.514Z,4.17
2019-03-10T01:44:36.915Z,6.20
2019-03-10T01:47:05.310Z,5.40
2019-03-10T01:49:33.996Z,5.35
2019-03-10T01:52:02.387Z,5.35
2019-03-10T01:54:30.929Z,8.38
2019-03-10T01:56:59.452Z,5.58
2019-03-10T01:59:27.846Z,4.55
2019-03-10T02:01:56.577Z,5.42
2019-03-10T02:04:25.332Z,4.55
2019-03-10T02:06:53.913Z,4.80
2019-03-10T02:09:22.274Z,5.75
2019-03-10T02:11:50.925Z,4.65
2019-03-10T02:14:19.422Z,11.45
2019-03-10T02:16:48.145Z,7.78
2019-03-10T02:19:16.977Z,8.63
2019-03-10T02:21:45.456Z,6.72
2019-03-10T02:24:23.361Z,8.45
2019-03-10T02:26:44.298Z,12.55
2019-03-10T02:29:12.702Z,8.53
2019-03-10T02:31:41.118Z,9.00
2019-03-10T02:34:09.484Z,10.38
2019-03-10T02:36:37.889Z,9.53
2019-03-10T02:39:06.715Z,10.53
2019-03-10T02:41:35.368Z,5.80
2019-03-10T02:44:03.912Z,29.45
2019-03-10T02:46:32.454Z,8.23
2019-03-10T02:49:01.242Z,7.85
2019-03-10T02:51:29.721Z,9.13
2019-03-10T02:53:58.040Z,8.70
2019-03-10T02:56:26.685Z,12.78
2019-03-10T02:58:55.025Z,14.40
2019-03-10T03:01:23.916Z,10.60
2019-03-10T03:03:52.378Z,8.20
2019-03-10T03:06:20.709Z,9.78
2019-03-10T03:08:49.162Z,9.30
2019-03-10T03:11:17.737Z,12.20
2019-03-10T03:13:45.990Z,13.48
2019-03-10T03:16:14.415Z,11.10
2019-03-10T03:18:42.709Z,12.70
2019-03-10T03:21:11.197Z,16.17
2019-03-10T03:23:39.513Z,14.43
2019-03-10T03:26:08.374Z,16.75
2019-03-10T03:28:36.860Z,15.55
2019-03-10T03:31:05.576Z,9.30
2019-03-10T03:33:34.063Z,12.53
2019-03-10T03:36:10.185Z,8.95
2019-03-10T03:38:43.670Z,15.85
2019-03-10T03:41:15.119Z,44.55
2019-03-10T03:43:43.454Z,11.25
2019-03-10T03:46:11.789Z,14.00
2019-03-10T03:48:40.166Z,11.55
2019-03-10T03:51:09.206Z,13.08
2019-03-10T03:53:37.510Z,16.15
2019-03-10T03:56:05.919Z,11.70
2019-03-10T03:58:34.702Z,16.57
2019-03-10T04:01:09.461Z,15.55
2019-03-10T04:03:38.489Z,24.60
2019-03-10T04:06:06.847Z,13.83
2019-03-10T04:08:35.240Z,15.48
2019-03-10T04:11:03.579Z,20.95
2019-03-10T04:13:32.142Z,21.52
2019-03-10T04:16:00.644Z,19.37
2019-03-10T04:18:29.380Z,20.32
2019-03-10T04:20:57.748Z,20.92
2019-03-10T04:23:26.122Z,13.45
2019-03-10T04:25:54.849Z,16.35
2019-03-10T04:28:23.154Z,18.73
2019-03-10T04:30:51.442Z,16.60
2019-03-10T04:33:19.625Z,12.98
2019-03-10T04:35:48.299Z,16.02
2019-03-10T04:38:17.009Z,22.82
2019-03-10T04:40:45.764Z,14.47
2019-03-10T04:43:14.406Z,14.30
2019-03-10T04:45:42.740Z,17.00
2019-03-10T04:48:11.779Z,16.27
2019-03-10T04:50:40.157Z,18.95
2019-03-10T04:53:08.699Z,15.00
2019-03-10T04:55:56.728Z,13.40
2019-03-10T04:58:24.979Z,14.28
2019-03-10T05:00:55.365Z,18.45
2019-03-10T05:03:23.865Z,11.20
2019-03-10T05:05:52.179Z,15.32
2019-03-10T05:08:20.911Z,13.68
2019-03-10T05:10:49.314Z,15.25
2019-03-10T05:13:17.659Z,16.62
2019-03-10T05:15:46.001Z,16.02
2019-03-10T05:18:14.459Z,13.08
2019-03-10T05:20:43.236Z,14.93
2019-03-10T05:23:43.622Z,17.37
2019-03-10T05:26:13.621Z,11.53
2019-03-10T05:28:46.785Z,13.75
2019-03-10T05:31:15.362Z,13.43
2019-03-10T05:33:44.091Z,14.93
2019-03-10T05:36:12.963Z,16.85
2019-03-10T05:38:41.857Z,14.15
2019-03-10T05:41:10.412Z,13.48
2019-03-10T05:43:38.831Z,23.50
2019-03-10T05:46:07.298Z,11.15
2019-03-10T05:48:35.681Z,9.43
2019-03-10T05:51:04.244Z,10.10
2019-03-10T05:53:32.950Z,13.03
2019-03-10T05:56:03.109Z,9.53
2019-03-10T05:58:31.511Z,14.55
2019-03-10T06:00:59.928Z,11.18
2019-03-10T06:03:28.279Z,10.18
2019-03-10T06:05:56.688Z,7.70
2019-03-10T06:08:25.077Z,15.88
2019-03-10T06:10:53.748Z,9.15
2019-03-10T06:13:22.466Z,12.70
2019-03-10T06:15:50.794Z,17.10
2019-03-10T06:18:19.215Z,9.83
2019-03-10T06:20:47.547Z,15.08
2019-03-10T06:23:16.133Z,15.43
2019-03-10T06:25:44.644Z,14.25
2019-03-10T06:28:12.993Z,15.83
2019-03-10T06:30:41.731Z,16.93
2019-03-10T06:33:10.360Z,11.45
2019-03-10T06:35:38.954Z,13.95
2019-03-10T06:38:07.448Z,12.20
2019-03-10T06:40:36.248Z,12.47
2019-03-10T06:43:04.811Z,11.25
2019-03-10T06:45:33.503Z,12.05
2019-03-10T06:48:01.903Z,16.20
2019-03-10T06:50:30.291Z,13.90
2019-03-10T06:52:58.614Z,17.00
2019-03-10T06:55:27.296Z,14.85
2019-03-10T06:57:56.019Z,10.68
2019-03-10T07:00:24.752Z,11.45
2019-03-10T07:02:53.564Z,10.63
2019-03-10T07:05:22.163Z,15.88
2019-03-10T07:07:50.488Z,14.87
2019-03-10T07:10:19.241Z,16.55
2019-03-10T07:12:47.644Z,15.08
2019-03-10T07:15:16.374Z,12.65
2019-03-10T07:17:44.924Z,17.10
2019-03-10T07:20:15.582Z,19.02
2019-03-10T07:25:12.192Z,14.58
2019-03-10T07:28:08.937Z,18.98
2019-03-10T07:30:51.120Z,14.53
2019-03-10T07:33:33.871Z,11.25
2019-03-10T07:36:20.350Z,13.00
2019-03-10T07:39:13.702Z,10.48
2019-03-10T07:42:07.483Z,10.15
2019-03-10T07:44:47.015Z,11.88
2019-03-10T07:47:25.333Z,16.30
2019-03-10T07:50:16.536Z,11.43
2019-03-10T07:52:56.294Z,6.67
2019-03-10T07:55:37.571Z,12.85
2019-03-10T07:58:17.275Z,7.62
2019-03-10T08:01:14.406Z,7.58
2019-03-10T08:04:11.354Z,12.03
2019-03-10T08:06:56.974Z,14.70
2019-03-10T08:09:51.656Z,12.07
2019-03-10T08:12:29.208Z,12.75
2019-03-10T08:15:19.778Z,10.03
2019-03-10T08:18:02.814Z,12.23
2019-03-10T08:20:59.976Z,9.75
2019-03-10T08:23:45.874Z,12.37
2019-03-10T08:26:36.836Z,13.88
2019-03-10T08:29:23.604Z,16.75
2019-03-10T08:32:20.882Z,11.40
2019-03-10T08:35:14.811Z,15.20
2019-03-10T08:38:03.328Z,15.28
2019-03-10T08:40:57.552Z,11.85
2019-03-10T08:43:36.372Z,9.33
2019-03-10T08:46:17.610Z,11.95
2019-03-10T08:49:01.657Z,8.30
2019-03-10T08:51:52.669Z,8.15
2019-03-10T08:54:34.044Z,11.68
2019-03-10T08:57:16.242Z,13.18
2019-03-10T08:59:55.931Z,16.97
2019-03-10T09:02:42.348Z,15.68
2019-03-10T09:05:31.319Z,13.55
2019-03-10T09:08:34.384Z,14.58
2019-03-10T09:11:20.943Z,11.65
2019-03-10T09:14:04.452Z,8.28
2019-03-10T09:16:48.390Z,9.63
2019-03-10T09:19:28.986Z,10.95
2019-03-10T09:22:16.973Z,8.38
2019-03-10T09:24:51.457Z,11.65
2019-03-10T09:27:37.982Z,11.80
2019-03-10T09:30:29.213Z,11.95
2019-03-10T09:33:15.890Z,9.58
2019-03-10T09:36:04.236Z,7.22
2019-03-10T09:38:47.071Z,10.15
2019-03-10T09:41:34.058Z,9.95
2019-03-10T09:44:22.522Z,9.93
2019-03-10T09:47:05.848Z,12.98
2019-03-10T09:49:56.847Z,11.60
2019-03-10T09:52:50.816Z,16.35
2019-03-10T09:55:30.708Z,8.53
2019-03-10T09:58:06.869Z,13.97
2019-03-10T10:01:00.714Z,12.23
2019-03-10T10:03:40.084Z,13.45
2019-03-10T10:06:31.167Z,7.00
2019-03-10T10:09:31.096Z,12.75
2019-03-10T10:12:18.666Z,10.63
2019-03-10T10:15:05.141Z,9.25
2019-03-10T10:17:59.008Z,9.48
2019-03-10T10:20:56.470Z,11.83
2019-03-10T10:23:44.890Z,15.28
2019-03-10T10:26:33.340Z,13.00
2019-03-10T10:29:13.422Z,11.75
2019-03-10T10:31:50.460Z,17.95
2019-03-10T10:34:33.552Z,15.78
2019-03-10T10:37:17.783Z,14.80
2019-03-10T10:40:05.828Z,7.78
2019-03-10T10:42:43.484Z,11.40
2019-03-10T10:45:23.255Z,9.80
2019-03-10T10:48:11.199Z,10.05
2019-03-10T10:50:49.073Z,14.13
2019-03-10T10:53:40.453Z,8.23
2019-03-10T10:56:37.717Z,11.35
2019-03-10T10:59:28.629Z,9.15
2019-03-10T11:05:19.075Z,10.90
2019-03-10T11:07:55.871Z,10.28
2019-03-10T11:10:46.639Z,8.75
2019-03-10T11:13:33.219Z,9.28
2019-03-10T11:16:21.119Z,9.20
2019-03-10T11:19:08.914Z,8.53
2019-03-10T11:21:55.720Z,14.28
2019-03-10T11:24:32.562Z,6.97
2019-03-10T11:27:15.435Z,6.90
2019-03-10T11:29:55.951Z,8.10
2019-03-10T11:32:31.965Z,11.60
2019-03-10T11:35:29.408Z,9.53
2019-03-10T11:38:17.488Z,7.92
2019-03-10T11:41:02.782Z,6.67
2019-03-10T11:43:35.981Z,8.10
2019-03-10T11:46:38.588Z,8.00
2019-03-10T11:49:42.189Z,10.00
2019-03-10T11:52:25.918Z,14.63
2019-03-10T11:55:22.646Z,11.22
2019-03-10T11:58:19.626Z,10.48
2019-03-10T12:01:02.284Z,9.65
2019-03-10T12:03:59.197Z,13.72
2019-03-10T12:06:56.165Z,15.45
2019-03-10T12:09:24.518Z,7.00
2019-03-10T12:11:52.848Z,8.48
2019-03-10T12:14:21.198Z,8.53
2019-03-10T12:16:49.697Z,9.48
2019-03-10T12:19:18.368Z,10.28
2019-03-10T12:21:47.005Z,7.22
2019-03-10T12:24:15.796Z,12.25
2019-03-10T12:26:44.384Z,12.30
2019-03-10T12:29:12.769Z,13.38
2019-03-10T12:31:41.125Z,8.50
2019-03-10T12:34:09.677Z,13.93
2019-03-10T12:36:38.343Z,9.33
2019-03-10T12:39:08.253Z,9.10
2019-03-10T12:41:37.096Z,11.13
2019-03-10T12:44:06.118Z,11.83
2019-03-10T12:46:34.436Z,8.55
2019-03-10T12:49:03.358Z,15.32
2019-03-10T12:51:31.872Z,14.45
2019-03-10T12:54:00.537Z,6.22
2019-03-10T12:56:28.976Z,16.10
2019-03-10T12:58:57.356Z,9.33
2019-03-10T13:01:26.044Z,9.65
2019-03-10T13:03:58.758Z,8.08
2019-03-10T13:06:24.635Z,10.18
2019-03-10T13:08:53.348Z,8.95
2019-03-10T13:11:22.026Z,10.38
2019-03-10T13:13:50.690Z,10.82
2019-03-10T13:16:19.340Z,10.23
2019-03-10T13:18:47.743Z,9.90
2019-03-10T13:21:16.475Z,7.78
2019-03-10T13:23:44.742Z,8.78
2019-03-10T13:26:13.204Z,12.95
2019-03-10T13:28:41.492Z,7.90
2019-03-10T13:31:09.925Z,13.28
2019-03-10T13:33:38.335Z,9.58
2019-03-10T13:36:07.733Z,9.23
2019-03-10T13:38:35.995Z,10.78
2019-03-10T13:41:04.805Z,12.55
2019-03-10T13:43:33.810Z,10.75
2019-03-10T13:46:03.027Z,12.07
2019-03-10T13:48:31.800Z,9.40
2019-03-10T13:51:00.360Z,13.53
2019-03-10T13:53:29.122Z,13.03
2019-03-10T13:55:57.678Z,18.57
2019-03-10T13:58:26.255Z,12.60
2019-03-10T14:00:54.967Z,9.28
2019-03-10T14:03:23.395Z,8.80
2019-03-10T14:05:51.907Z,9.60
2019-03-10T14:08:20.843Z,7.60
2019-03-10T14:10:51.534Z,17.73
2019-03-10T14:13:20.670Z,13.78
2019-03-10T14:15:49.552Z,14.00
2019-03-10T14:18:18.161Z,14.47
2019-03-10T14:20:46.831Z,9.00
2019-03-10T14:23:15.326Z,12.65
2019-03-10T14:25:44.145Z,10.90
2019-03-10T14:28:12.884Z,10.15
2019-03-10T14:30:41.315Z,9.78
2019-03-10T14:33:10.051Z,7.78
2019-03-10T14:35:38.514Z,7.87
2019-03-10T14:38:07.424Z,7.40
2019-03-10T14:40:36.003Z,8.10
2019-03-10T14:43:04.776Z,12.80
2019-03-10T14:45:33.581Z,8.03
2019-03-10T14:48:01.941Z,11.60
2019-03-10T14:50:30.389Z,11.93
2019-03-10T14:52:59.150Z,10.48
2019-03-10T14:55:27.729Z,12.00
2019-03-10T14:57:56.491Z,12.15
2019-03-10T15:00:25.144Z,10.25
2019-03-10T15:02:53.368Z,10.68
2019-03-10T15:05:22.194Z,13.80
2019-03-10T15:07:50.627Z,10.13
2019-03-10T15:10:19.463Z,7.33
2019-03-10T15:12:47.959Z,11.05
2019-03-10T15:15:22.207Z,10.78
2019-03-10T15:17:47.209Z,9.13
2019-03-10T15:20:16.373Z,13.98
2019-03-10T15:22:45.123Z,9.40
2019-03-10T15:25:13.535Z,10.43
2019-03-10T15:27:41.987Z,13.18
2019-03-10T15:30:15.820Z,15.30
2019-03-10T15:32:44.494Z,14.43
2019-03-10T15:35:13.292Z,7.90
2019-03-10T15:37:42.184Z,6.15
2019-03-10T15:40:12.038Z,10.18
2019-03-10T15:42:40.511Z,11.70
2019-03-10T15:45:10.300Z,16.45
2019-03-10T15:47:38.884Z,12.13
2019-03-10T15:50:15.723Z,13.03
2019-03-10T15:52:44.305Z,14.00
2019-03-10T15:55:13.124Z,15.60
2019-03-10T15:57:49.527Z,13.20
2019-03-10T16:00:14.616Z,9.38
2019-03-10T16:02:43.222Z,16.17
2019-03-10T16:05:12.182Z,17.30
2019-03-10T16:07:40.562Z,12.18
2019-03-10T16:10:10.284Z,22.00
2019-03-10T16:12:39.223Z,21.97
2019-03-10T16:15:11.078Z,13.13
2019-03-10T16:17:39.606Z,10.88
2019-03-10T16:20:09.857Z,14.28
2019-03-10T16:22:38.573Z,15.70
2019-03-10T16:25:09.111Z,15.85
2019-03-10T16:27:37.307Z,12.63
2019-03-10T16:30:09.418Z,16.62
2019-03-10T16:32:39.091Z,11.43
2019-03-10T16:35:08.133Z,12.75
2019-03-10T16:37:36.496Z,11.03
2019-03-10T16:40:07.180Z,14.28
2019-03-10T16:42:36.025Z,13.03
2019-03-10T16:45:05.311Z,11.93
2019-03-10T16:47:34.353Z,16.52
2019-03-10T16:50:03.313Z,8.80
2019-03-10T16:52:31.670Z,8.95
2019-03-10T16:55:00.115Z,10.45
2019-03-10T16:57:28.777Z,11.18
2019-03-10T16:59:57.254Z,12.55
2019-03-10T17:02:25.857Z,8.23
2019-03-10T17:04:54.187Z,9.65
2019-03-10T17:07:23.096Z,13.53
2019-03-10T17:09:51.546Z,14.05
2019-03-10T17:12:20.248Z,10.75
2019-03-10T17:14:48.810Z,9.20
2019-03-10T17:17:17.988Z,9.05
2019-03-10T17:19:46.432Z,10.60
2019-03-10T17:22:15.047Z,9.48
2019-03-10T17:24:43.797Z,12.53
2019-03-10T17:27:12.403Z,12.78
2019-03-10T17:29:40.766Z,8.93
2019-03-10T17:32:09.102Z,7.45
2019-03-10T17:34:37.577Z,12.35
2019-03-10T17:37:05.897Z,14.20
2019-03-10T17:39:34.265Z,9.58
2019-03-10T17:42:03.039Z,8.90
2019-03-10T17:44:40.669Z,11.80
2019-03-10T17:47:01.850Z,11.28
2019-03-10T17:49:30.235Z,10.55
2019-03-10T17:51:58.624Z,13.08
2019-03-10T17:54:27.017Z,13.85
2019-03-10T17:56:55.648Z,12.35
2019-03-10T17:59:24.352Z,11.97
2019-03-10T18:01:52.747Z,15.93
2019-03-10T18:04:21.523Z,16.00
2019-03-10T18:06:50.103Z,10.23
2019-03-10T18:09:18.559Z,12.60
2019-03-10T18:11:46.866Z,14.58
2019-03-10T18:14:15.302Z,16.17
2019-03-10T18:16:43.681Z,10.55
2019-03-10T18:19:12.176Z,14.75
2019-03-10T18:21:40.832Z,12.70
2019-03-10T18:24:09.062Z,13.28
2019-03-10T18:26:37.485Z,16.45
2019-03-10T18:29:05.918Z,11.20
2019-03-10T18:31:34.502Z,17.35
2019-03-10T18:34:03.165Z,8.83
2019-03-10T18:36:31.888Z,13.58
2019-03-10T18:39:00.610Z,17.92
2019-03-10T18:41:29.035Z,11.50
2019-03-10T18:43:57.434Z,19.02
2019-03-10T18:46:26.067Z,18.48
2019-03-10T18:48:54.481Z,17.42
2019-03-10T18:51:23.118Z,18.90
2019-03-10T18:53:51.560Z,20.17
2019-03-10T18:56:20.614Z,18.70
2019-03-10T18:58:49.241Z,15.75
2019-03-10T19:01:17.865Z,16.50
2019-03-10T19:03:46.303Z,17.02
2019-03-10T19:06:14.885Z,23.18
2019-03-10T19:08:43.336Z,17.12
2019-03-10T19:11:12.000Z,17.73
2019-03-10T19:13:41.002Z,16.35
2019-03-10T19:16:09.885Z,15.80
2019-03-10T19:18:38.712Z,15.43
2019-03-10T19:21:07.494Z,17.60
2019-03-10T19:23:36.058Z,20.82
2019-03-10T19:26:05.084Z,21.93
2019-03-10T19:28:33.776Z,28.65
2019-03-10T19:31:02.685Z,33.90
2019-03-10T19:33:31.415Z,36.25
2019-03-10T19:35:59.766Z,39.53
2019-03-10T19:38:28.156Z,36.42
2019-03-10T19:40:56.712Z,38.60
2019-03-10T19:43:25.389Z,34.92
2019-03-10T19:45:53.934Z,31.50
2019-03-10T19:48:22.430Z,28.73
2019-03-10T19:50:51.019Z,33.98
2019-03-10T19:53:19.658Z,37.20
2019-03-10T19:55:48.746Z,48.95
2019-03-10T19:58:17.533Z,35.15
2019-03-10T20:00:46.218Z,37.15
2019-03-10T20:03:14.715Z,43.35
2019-03-10T20:05:43.047Z,41.35
2019-03-10T20:08:13.313Z,49.55
2019-03-10T20:10:42.089Z,56.95
2019-03-10T20:13:10.355Z,54.80
2019-03-10T20:15:38.777Z,74.37
2019-03-10T20:18:09.170Z,55.55
2019-03-10T20:20:37.515Z,47.00
2019-03-10T20:23:06.388Z,54.33
2019-03-10T20:25:34.753Z,66.15
2019-03-10T20:28:03.123Z,51.95
2019-03-10T20:30:31.649Z,39.58
2019-03-10T20:33:00.535Z,40.88
2019-03-10T20:35:28.880Z,43.38
2019-03-10T20:37:57.395Z,38.40
2019-03-10T20:40:25.968Z,54.63
2019-03-10T20:42:54.659Z,35.13
2019-03-10T20:45:24.739Z,33.90
2019-03-10T20:47:56.316Z,38.98
2019-03-10T20:50:24.236Z,42.03
2019-03-10T20:52:52.777Z,36.48
2019-03-10T20:55:21.515Z,42.20
2019-03-10T20:57:49.922Z,46.15
2019-03-10T21:00:19.114Z,44.25
2019-03-10T21:02:47.702Z,44.70
2019-03-10T21:05:16.519Z,36.88
2019-03-10T21:07:45.171Z,41.77
2019-03-10T21:10:14.431Z,42.95
2019-03-10T21:12:42.979Z,55.10
2019-03-10T21:15:16.049Z,52.80
2019-03-10T21:17:44.551Z,51.58
2019-03-10T21:20:14.593Z,45.73
2019-03-10T21:22:42.950Z,38.85
2019-03-10T21:25:14.977Z,39.15
2019-03-10T21:27:43.318Z,34.20
2019-03-10T21:30:15.710Z,45.63
2019-03-10T21:32:44.044Z,32.05
2019-03-10T21:35:17.744Z,40.92
2019-03-10T21:37:42.623Z,40.88
2019-03-10T21:40:13.602Z,52.83
2019-03-10T21:42:42.184Z,49.18
2019-03-10T21:45:11.104Z,48.92
2019-03-10T21:47:39.490Z,49.30
2019-03-10T21:50:10.119Z,44.03
2019-03-10T21:55:07.589Z,43.83
2019-03-10T21:57:35.985Z,45.17
2019-03-10T22:00:04.833Z,50.73
2019-03-10T22:02:33.350Z,51.60
2019-03-10T22:05:01.830Z,55.63
2019-03-10T22:07:30.440Z,53.87
2019-03-10T22:09:58.929Z,50.92
2019-03-10T22:12:27.375Z,45.48
2019-03-10T22:14:55.689Z,49.08
2019-03-10T22:17:24.471Z,48.85
2019-03-10T22:19:52.813Z,50.33
2019-03-10T22:22:21.473Z,47.35
2019-03-10T22:24:49.884Z,62.03
2019-03-10T22:27:18.531Z,46.02
2019-03-10T22:29:47.210Z,46.65
2019-03-10T22:32:15.933Z,55.92
2019-03-10T22:34:44.590Z,49.48
2019-03-10T22:37:13.414Z,59.50
2019-03-10T22:39:42.239Z,51.37
2019-03-10T22:42:11.176Z,49.42
2019-03-10T22:44:39.720Z,47.85
2019-03-10T22:47:08.755Z,47.50
2019-03-10T22:49:37.706Z,45.63
2019-03-10T22:52:06.697Z,42.60
2019-03-10T22:54:35.287Z,41.83
2019-03-10T22:57:03.663Z,52.30
2019-03-10T22:59:32.131Z,45.17
2019-03-10T23:02:00.714Z,49.88
2019-03-10T23:04:29.011Z,38.33
2019-03-10T23:06:57.530Z,47.67
2019-03-10T23:09:26.302Z,42.33
2019-03-10T23:11:54.738Z,39.85
2019-03-10T23:14:23.275Z,38.28
2019-03-10T23:16:52.546Z,38.30
2019-03-10T23:19:20.942Z,36.95
2019-03-10T23:21:49.699Z,39.53
2019-03-10T23:24:18.326Z,43.40
2019-03-10T23:26:46.706Z,34.83
2019-03-10T23:29:15.109Z,42.83
2019-03-10T23:31:43.503Z,36.70
2019-03-10T23:34:11.849Z,35.75
2019-03-10T23:36:40.546Z,38.02
2019-03-10T23:39:08.943Z,34.25
2019-03-10T23:41:37.239Z,33.50
2019-03-10T23:44:05.751Z,35.10
2019-03-10T23:46:34.441Z,36.42
2019-03-10T23:49:03.005Z,36.35
2019-03-10T23:51:31.453Z,37.03
2019-03-10T23:53:59.719Z,38.70
2019-03-10T23:56:28.813Z,36.42
2019-03-10T23:58:57.251Z,36.28
